Terminal Aerodrome Forecast
Issued by NWS

Home | Current Version | Previous Version | Text Only | Print | Product List | Glossary On
Versions: 1 2 3 4 5 6 7 8 9 10 11 12 13 14 15
833
FTUS44 KLZK 081005 AAA
TAFBPK
TAF AMD
KBPK 081005Z 0810/0906 30007KT P6SM SKC
     FM081100 31015G25KT P6SM OVC050
     FM090000 33012G20KT P6SM OVC050=

USA.gov is the U.S. government's official web portal to all federal, state and local government web resources and services.